sensor_id;sensor_type;location;lat;lon;timestamp;temperature;humidity
61641;HTU21D;62201;49.966;8.342;2022-10-31T00:00:55;10.92;108.99
61641;HTU21D;62201;49.966;8.342;2022-10-31T00:03:21;10.96;109.13
61641;HTU21D;62201;49.966;8.342;2022-10-31T00:05:48;10.94;108.97
61641;HTU21D;62201;49.966;8.342;2022-10-31T00:08:14;10.93;108.98
61641;HTU21D;62201;49.966;8.342;2022-10-31T00:10:40;10.93;109.04
61641;HTU21D;62201;49.966;8.342;2022-10-31T00:13:06;10.92;109.07
61641;HTU21D;62201;49.966;8.342;2022-10-31T00:15:36;10.87;108.88
61641;HTU21D;62201;49.966;8.342;2022-10-31T00:18:02;10.87;108.92
61641;HTU21D;62201;49.966;8.342;2022-10-31T00:20:28;10.87;108.97
61641;HTU21D;62201;49.966;8.342;2022-10-31T00:22:57;10.88;108.97
61641;HTU21D;62201;49.966;8.342;2022-10-31T00:25:23;10.88;108.96
61641;HTU21D;62201;49.966;8.342;2022-10-31T00:27:48;10.88;109.06
61641;HTU21D;62201;49.966;8.342;2022-10-31T00:30:14;10.90;109.00
61641;HTU21D;62201;49.966;8.342;2022-10-31T00:32:39;10.93;109.16
61641;HTU21D;62201;49.966;8.342;2022-10-31T00:35:05;10.98;109.22
61641;HTU21D;62201;49.966;8.342;2022-10-31T00:37:30;11.02;109.32
61641;HTU21D;62201;49.966;8.342;2022-10-31T00:39:55;11.04;109.27
61641;HTU21D;62201;49.966;8.342;2022-10-31T00:42:21;10.99;109.07
61641;HTU21D;62201;49.966;8.342;2022-10-31T00:44:46;10.94;108.93
61641;HTU21D;62201;49.966;8.342;2022-10-31T00:47:11;10.89;108.88
61641;HTU21D;62201;49.966;8.342;2022-10-31T00:49:37;10.90;109.06
61641;HTU21D;62201;49.966;8.342;2022-10-31T00:52:02;10.92;108.98
61641;HTU21D;62201;49.966;8.342;2022-10-31T00:54:28;10.98;109.14
61641;HTU21D;62201;49.966;8.342;2022-10-31T00:56:53;10.98;109.18
61641;HTU21D;62201;49.966;8.342;2022-10-31T00:59:18;11.00;109.25
61641;HTU21D;62201;49.966;8.342;2022-10-31T01:01:44;11.04;109.23
61641;HTU21D;62201;49.966;8.342;2022-10-31T01:04:09;11.02;109.20
61641;HTU21D;62201;49.966;8.342;2022-10-31T01:06:34;11.03;109.21
61641;HTU21D;62201;49.966;8.342;2022-10-31T01:09:00;11.08;109.26
61641;HTU21D;62201;49.966;8.342;2022-10-31T01:11:25;11.11;109.34
61641;HTU21D;62201;49.966;8.342;2022-10-31T01:13:53;11.15;109.37
61641;HTU21D;62201;49.966;8.342;2022-10-31T01:16:22;11.15;109.38
61641;HTU21D;62201;49.966;8.342;2022-10-31T01:18:48;11.14;109.17
61641;HTU21D;62201;49.966;8.342;2022-10-31T01:21:17;11.16;109.30
61641;HTU21D;62201;49.966;8.342;2022-10-31T01:23:42;11.22;109.35
61641;HTU21D;62201;49.966;8.342;2022-10-31T01:26:23;11.16;109.16
61641;HTU21D;62201;49.966;8.342;2022-10-31T01:31:20;11.07;108.85
61641;HTU21D;62201;49.966;8.342;2022-10-31T01:33:46;11.03;108.83
61641;HTU21D;62201;49.966;8.342;2022-10-31T01:36:23;10.95;108.65
61641;HTU21D;62201;49.966;8.342;2022-10-31T01:38:51;10.87;108.46
61641;HTU21D;62201;49.966;8.342;2022-10-31T01:41:20;10.82;108.48
61641;HTU21D;62201;49.966;8.342;2022-10-31T01:44:00;10.79;108.53
61641;HTU21D;62201;49.966;8.342;2022-10-31T01:46:43;10.74;108.49
61641;HTU21D;62201;49.966;8.342;2022-10-31T01:49:20;10.67;108.46
61641;HTU21D;62201;49.966;8.342;2022-10-31T01:54:43;10.54;108.32
61641;HTU21D;62201;49.966;8.342;2022-10-31T01:57:13;10.55;108.45
61641;HTU21D;62201;49.966;8.342;2022-10-31T01:59:47;10.53;108.49
61641;HTU21D;62201;49.966;8.342;2022-10-31T02:02:15;10.53;108.68
61641;HTU21D;62201;49.966;8.342;2022-10-31T02:04:41;10.53;108.74
61641;HTU21D;62201;49.966;8.342;2022-10-31T02:07:13;10.60;109.01
61641;HTU21D;62201;49.966;8.342;2022-10-31T02:09:40;10.60;108.94
61641;HTU21D;62201;49.966;8.342;2022-10-31T02:12:06;10.53;108.86
61641;HTU21D;62201;49.966;8.342;2022-10-31T02:14:35;10.54;108.82
61641;HTU21D;62201;49.966;8.342;2022-10-31T02:17:01;10.55;108.87
61641;HTU21D;62201;49.966;8.342;2022-10-31T02:19:54;10.56;108.88
61641;HTU21D;62201;49.966;8.342;2022-10-31T02:25:41;10.49;108.90
61641;HTU21D;62201;49.966;8.342;2022-10-31T02:31:17;10.45;108.90
61641;HTU21D;62201;49.966;8.342;2022-10-31T02:33:58;10.44;108.91
61641;HTU21D;62201;49.966;8.342;2022-10-31T02:39:30;10.44;109.03
61641;HTU21D;62201;49.966;8.342;2022-10-31T02:47:31;10.39;108.88
61641;HTU21D;62201;49.966;8.342;2022-10-31T02:50:08;10.35;108.94
61641;HTU21D;62201;49.966;8.342;2022-10-31T02:52:35;10.34;108.86
61641;HTU21D;62201;49.966;8.342;2022-10-31T02:57:58;10.29;108.83
61641;HTU21D;62201;49.966;8.342;2022-10-31T03:00:25;10.26;108.81
61641;HTU21D;62201;49.966;8.342;2022-10-31T03:05:52;10.27;109.03
61641;HTU21D;62201;49.966;8.342;2022-10-31T03:10:57;10.27;109.22
61641;HTU21D;62201;49.966;8.342;2022-10-31T03:18:55;10.11;108.99
61641;HTU21D;62201;49.966;8.342;2022-10-31T03:21:44;10.14;109.02
61641;HTU21D;62201;49.966;8.342;2022-10-31T03:24:12;10.13;109.03
61641;HTU21D;62201;49.966;8.342;2022-10-31T03:26:41;10.08;109.10
61641;HTU21D;62201;49.966;8.342;2022-10-31T03:29:11;10.01;108.95
61641;HTU21D;62201;49.966;8.342;2022-10-31T03:32:27;9.98;108.95
61641;HTU21D;62201;49.966;8.342;2022-10-31T03:34:32;10.03;109.10
61641;HTU21D;62201;49.966;8.342;2022-10-31T03:37:02;10.03;109.10
61641;HTU21D;62201;49.966;8.342;2022-10-31T03:39:29;9.98;109.12
61641;HTU21D;62201;49.966;8.342;2022-10-31T03:42:18;9.97;109.10
61641;HTU21D;62201;49.966;8.342;2022-10-31T03:44:56;9.95;109.03
61641;HTU21D;62201;49.966;8.342;2022-10-31T03:47:23;10.00;109.32
61641;HTU21D;62201;49.966;8.342;2022-10-31T03:49:49;10.01;109.27
61641;HTU21D;62201;49.966;8.342;2022-10-31T03:55:30;9.99;109.30
61641;HTU21D;62201;49.966;8.342;2022-10-31T03:58:09;9.96;109.29
61641;HTU21D;62201;49.966;8.342;2022-10-31T04:00:40;9.92;109.20
61641;HTU21D;62201;49.966;8.342;2022-10-31T04:03:12;9.88;109.07
61641;HTU21D;62201;49.966;8.342;2022-10-31T04:05:41;9.84;109.09
61641;HTU21D;62201;49.966;8.342;2022-10-31T04:08:10;9.81;108.99
61641;HTU21D;62201;49.966;8.342;2022-10-31T04:10:38;9.84;109.03
61641;HTU21D;62201;49.966;8.342;2022-10-31T04:13:08;9.88;109.25
61641;HTU21D;62201;49.966;8.342;2022-10-31T04:15:35;9.89;109.25
61641;HTU21D;62201;49.966;8.342;2022-10-31T04:18:03;9.92;109.39
61641;HTU21D;62201;49.966;8.342;2022-10-31T04:20:32;9.99;109.59
61641;HTU21D;62201;49.966;8.342;2022-10-31T04:22:57;10.04;109.69
61641;HTU21D;62201;49.966;8.342;2022-10-31T04:25:23;10.05;109.60
61641;HTU21D;62201;49.966;8.342;2022-10-31T04:27:48;10.09;109.67
61641;HTU21D;62201;49.966;8.342;2022-10-31T04:30:13;10.09;109.72
61641;HTU21D;62201;49.966;8.342;2022-10-31T04:32:39;10.13;109.74
61641;HTU21D;62201;49.966;8.342;2022-10-31T04:35:05;10.15;109.60
61641;HTU21D;62201;49.966;8.342;2022-10-31T04:37:30;10.18;109.68
61641;HTU21D;62201;49.966;8.342;2022-10-31T04:39:55;10.22;109.68
61641;HTU21D;62201;49.966;8.342;2022-10-31T04:42:21;10.16;109.65
61641;HTU21D;62201;49.966;8.342;2022-10-31T04:44:46;10.13;109.52
61641;HTU21D;62201;49.966;8.342;2022-10-31T04:47:11;10.10;109.46
61641;HTU21D;62201;49.966;8.342;2022-10-31T04:49:37;10.09;109.45
61641;HTU21D;62201;49.966;8.342;2022-10-31T04:52:02;10.11;109.54
61641;HTU21D;62201;49.966;8.342;2022-10-31T04:54:28;10.11;109.57
61641;HTU21D;62201;49.966;8.342;2022-10-31T04:56:53;10.07;109.48
61641;HTU21D;62201;49.966;8.342;2022-10-31T04:59:18;10.03;109.30
61641;HTU21D;62201;49.966;8.342;2022-10-31T05:01:44;10.00;109.36
61641;HTU21D;62201;49.966;8.342;2022-10-31T05:04:09;9.99;109.34
61641;HTU21D;62201;49.966;8.342;2022-10-31T05:06:34;9.98;109.31
61641;HTU21D;62201;49.966;8.342;2022-10-31T05:09:00;10.00;109.33
61641;HTU21D;62201;49.966;8.342;2022-10-31T05:11:25;10.03;109.41
61641;HTU21D;62201;49.966;8.342;2022-10-31T05:13:51;9.99;109.30
61641;HTU21D;62201;49.966;8.342;2022-10-31T05:16:16;9.99;109.36
61641;HTU21D;62201;49.966;8.342;2022-10-31T05:18:42;10.04;109.43
61641;HTU21D;62201;49.966;8.342;2022-10-31T05:21:07;10.06;109.62
61641;HTU21D;62201;49.966;8.342;2022-10-31T05:23:32;10.06;109.56
61641;HTU21D;62201;49.966;8.342;2022-10-31T05:25:58;10.08;109.54
61641;HTU21D;62201;49.966;8.342;2022-10-31T05:28:23;10.06;109.50
61641;HTU21D;62201;49.966;8.342;2022-10-31T05:30:49;10.06;109.50
61641;HTU21D;62201;49.966;8.342;2022-10-31T05:33:14;10.08;109.38
61641;HTU21D;62201;49.966;8.342;2022-10-31T05:35:40;10.09;109.52
61641;HTU21D;62201;49.966;8.342;2022-10-31T05:38:05;10.09;109.46
61641;HTU21D;62201;49.966;8.342;2022-10-31T05:40:30;10.10;109.55
61641;HTU21D;62201;49.966;8.342;2022-10-31T05:42:56;10.08;109.47
61641;HTU21D;62201;49.966;8.342;2022-10-31T05:45:24;10.08;109.44
61641;HTU21D;62201;49.966;8.342;2022-10-31T05:47:57;10.06;109.31
61641;HTU21D;62201;49.966;8.342;2022-10-31T05:50:23;10.10;109.48
61641;HTU21D;62201;49.966;8.342;2022-10-31T05:52:57;10.18;109.61
61641;HTU21D;62201;49.966;8.342;2022-10-31T05:55:23;10.20;109.62
61641;HTU21D;62201;49.966;8.342;2022-10-31T05:57:48;10.24;109.81
61641;HTU21D;62201;49.966;8.342;2022-10-31T06:00:14;10.21;109.75
61641;HTU21D;62201;49.966;8.342;2022-10-31T06:02:39;10.18;109.68
61641;HTU21D;62201;49.966;8.342;2022-10-31T06:05:05;10.12;109.56
61641;HTU21D;62201;49.966;8.342;2022-10-31T06:07:34;10.12;109.42
61641;HTU21D;62201;49.966;8.342;2022-10-31T06:10:00;10.11;109.46
61641;HTU21D;62201;49.966;8.342;2022-10-31T06:12:26;10.09;109.42
61641;HTU21D;62201;49.966;8.342;2022-10-31T06:14:51;10.11;109.43
61641;HTU21D;62201;49.966;8.342;2022-10-31T06:17:16;10.08;109.38
61641;HTU21D;62201;49.966;8.342;2022-10-31T06:19:42;10.09;109.43
61641;HTU21D;62201;49.966;8.342;2022-10-31T06:22:07;10.10;109.36
61641;HTU21D;62201;49.966;8.342;2022-10-31T06:24:33;10.15;109.46
61641;HTU21D;62201;49.966;8.342;2022-10-31T06:26:58;10.20;109.48
61641;HTU21D;62201;49.966;8.342;2022-10-31T06:29:24;10.25;109.62
61641;HTU21D;62201;49.966;8.342;2022-10-31T06:31:51;10.28;109.61
61641;HTU21D;62201;49.966;8.342;2022-10-31T06:34:17;10.35;109.48
61641;HTU21D;62201;49.966;8.342;2022-10-31T06:36:42;10.38;109.52
61641;HTU21D;62201;49.966;8.342;2022-10-31T06:39:08;10.45;109.41
61641;HTU21D;62201;49.966;8.342;2022-10-31T06:41:33;10.52;109.52
61641;HTU21D;62201;49.966;8.342;2022-10-31T06:43:58;10.60;109.56
61641;HTU21D;62201;49.966;8.342;2022-10-31T06:46:24;10.69;109.56
61641;HTU21D;62201;49.966;8.342;2022-10-31T06:48:49;10.78;109.51
61641;HTU21D;62201;49.966;8.342;2022-10-31T06:51:14;10.88;109.49
61641;HTU21D;62201;49.966;8.342;2022-10-31T06:53:40;10.93;109.16
61641;HTU21D;62201;49.966;8.342;2022-10-31T06:56:06;11.00;109.11
61641;HTU21D;62201;49.966;8.342;2022-10-31T06:58:31;11.10;109.08
61641;HTU21D;62201;49.966;8.342;2022-10-31T07:00:59;11.18;108.99
61641;HTU21D;62201;49.966;8.342;2022-10-31T07:03:25;11.28;108.97
61641;HTU21D;62201;49.966;8.342;2022-10-31T07:05:51;11.32;108.77
61641;HTU21D;62201;49.966;8.342;2022-10-31T07:08:16;11.37;108.57
61641;HTU21D;62201;49.966;8.342;2022-10-31T07:10:42;11.41;108.25
61641;HTU21D;62201;49.966;8.342;2022-10-31T07:13:13;11.47;108.28
61641;HTU21D;62201;49.966;8.342;2022-10-31T07:15:40;11.52;107.98
61641;HTU21D;62201;49.966;8.342;2022-10-31T07:18:08;11.56;107.72
61641;HTU21D;62201;49.966;8.342;2022-10-31T07:20:34;11.61;107.66
61641;HTU21D;62201;49.966;8.342;2022-10-31T07:23:00;11.64;107.54
61641;HTU21D;62201;49.966;8.342;2022-10-31T07:25:26;11.69;107.43
61641;HTU21D;62201;49.966;8.342;2022-10-31T07:27:52;11.75;107.37
61641;HTU21D;62201;49.966;8.342;2022-10-31T07:30:17;11.82;107.17
61641;HTU21D;62201;49.966;8.342;2022-10-31T07:32:45;11.87;106.75
61641;HTU21D;62201;49.966;8.342;2022-10-31T07:35:13;11.93;106.71
61641;HTU21D;62201;49.966;8.342;2022-10-31T07:37:39;11.99;106.42
61641;HTU21D;62201;49.966;8.342;2022-10-31T07:40:06;12.10;106.19
61641;HTU21D;62201;49.966;8.342;2022-10-31T07:42:39;12.21;106.19
61641;HTU21D;62201;49.966;8.342;2022-10-31T07:45:06;12.31;105.58
61641;HTU21D;62201;49.966;8.342;2022-10-31T07:47:42;12.37;105.40
61641;HTU21D;62201;49.966;8.342;2022-10-31T07:50:09;12.48;105.33
61641;HTU21D;62201;49.966;8.342;2022-10-31T07:52:35;12.55;104.89
61641;HTU21D;62201;49.966;8.342;2022-10-31T07:55:01;12.60;104.57
61641;HTU21D;62201;49.966;8.342;2022-10-31T07:57:28;12.70;104.63
61641;HTU21D;62201;49.966;8.342;2022-10-31T07:59:53;12.78;104.50
61641;HTU21D;62201;49.966;8.342;2022-10-31T08:02:18;12.90;104.37
61641;HTU21D;62201;49.966;8.342;2022-10-31T08:04:44;12.96;104.04
61641;HTU21D;62201;49.966;8.342;2022-10-31T08:07:09;13.00;103.63
61641;HTU21D;62201;49.966;8.342;2022-10-31T08:09:35;13.06;103.40
61641;HTU21D;62201;49.966;8.342;2022-10-31T08:12:00;13.14;103.38
61641;HTU21D;62201;49.966;8.342;2022-10-31T08:14:26;13.18;103.26
61641;HTU21D;62201;49.966;8.342;2022-10-31T08:16:52;13.23;103.18
61641;HTU21D;62201;49.966;8.342;2022-10-31T08:19:18;13.26;102.76
61641;HTU21D;62201;49.966;8.342;2022-10-31T08:21:44;13.36;102.96
61641;HTU21D;62201;49.966;8.342;2022-10-31T08:24:09;13.45;102.99
61641;HTU21D;62201;49.966;8.342;2022-10-31T08:26:35;13.49;102.28
61641;HTU21D;62201;49.966;8.342;2022-10-31T08:29:00;13.52;101.89
61641;HTU21D;62201;49.966;8.342;2022-10-31T08:31:27;13.67;102.06
61641;HTU21D;62201;49.966;8.342;2022-10-31T08:33:53;13.77;101.42
61641;HTU21D;62201;49.966;8.342;2022-10-31T08:36:22;13.97;101.41
61641;HTU21D;62201;49.966;8.342;2022-10-31T08:38:48;14.05;99.83
61641;HTU21D;62201;49.966;8.342;2022-10-31T08:41:14;14.11;99.29
61641;HTU21D;62201;49.966;8.342;2022-10-31T08:43:39;14.22;99.44
61641;HTU21D;62201;49.966;8.342;2022-10-31T08:46:05;14.22;98.27
61641;HTU21D;62201;49.966;8.342;2022-10-31T08:48:30;14.19;98.19
61641;HTU21D;62201;49.966;8.342;2022-10-31T08:50:58;14.18;97.42
61641;HTU21D;62201;49.966;8.342;2022-10-31T08:53:24;14.19;97.40
61641;HTU21D;62201;49.966;8.342;2022-10-31T08:55:50;14.22;97.10
61641;HTU21D;62201;49.966;8.342;2022-10-31T08:58:17;14.32;96.48
61641;HTU21D;62201;49.966;8.342;2022-10-31T09:00:44;14.42;96.42
61641;HTU21D;62201;49.966;8.342;2022-10-31T09:03:15;14.51;95.40
61641;HTU21D;62201;49.966;8.342;2022-10-31T09:05:41;14.57;94.10
61641;HTU21D;62201;49.966;8.342;2022-10-31T09:08:07;14.60;94.23
61641;HTU21D;62201;49.966;8.342;2022-10-31T09:10:34;14.64;94.22
61641;HTU21D;62201;49.966;8.342;2022-10-31T09:13:02;14.77;93.62
61641;HTU21D;62201;49.966;8.342;2022-10-31T09:15:31;14.84;92.49
61641;HTU21D;62201;49.966;8.342;2022-10-31T09:17:57;14.77;91.75
61641;HTU21D;62201;49.966;8.342;2022-10-31T09:20:22;14.72;90.81
61641;HTU21D;62201;49.966;8.342;2022-10-31T09:22:48;14.68;89.44
61641;HTU21D;62201;49.966;8.342;2022-10-31T09:25:20;14.73;88.89
61641;HTU21D;62201;49.966;8.342;2022-10-31T09:27:45;14.74;88.73
61641;HTU21D;62201;49.966;8.342;2022-10-31T09:30:11;14.87;88.82
61641;HTU21D;62201;49.966;8.342;2022-10-31T09:32:36;15.00;88.10
61641;HTU21D;62201;49.966;8.342;2022-10-31T09:35:02;15.13;87.96
61641;HTU21D;62201;49.966;8.342;2022-10-31T09:37:27;15.25;87.21
61641;HTU21D;62201;49.966;8.342;2022-10-31T09:39:53;15.24;86.40
61641;HTU21D;62201;49.966;8.342;2022-10-31T09:45:11;15.54;84.97
61641;HTU21D;62201;49.966;8.342;2022-10-31T09:50:51;15.96;82.52
61641;HTU21D;62201;49.966;8.342;2022-10-31T09:56:07;15.96;82.81
61641;HTU21D;62201;49.966;8.342;2022-10-31T09:58:41;15.78;82.96
61641;HTU21D;62201;49.966;8.342;2022-10-31T10:01:19;15.97;83.10
61641;HTU21D;62201;49.966;8.342;2022-10-31T10:03:50;16.18;82.73
61641;HTU21D;62201;49.966;8.342;2022-10-31T10:06:21;16.33;82.04
61641;HTU21D;62201;49.966;8.342;2022-10-31T10:08:48;16.35;80.84
61641;HTU21D;62201;49.966;8.342;2022-10-31T10:13:52;16.41;80.93
61641;HTU21D;62201;49.966;8.342;2022-10-31T10:19:19;16.46;79.82
61641;HTU21D;62201;49.966;8.342;2022-10-31T10:21:53;16.66;79.06
61641;HTU21D;62201;49.966;8.342;2022-10-31T10:24:40;16.80;78.06
61641;HTU21D;62201;49.966;8.342;2022-10-31T10:30:21;17.06;77.19
61641;HTU21D;62201;49.966;8.342;2022-10-31T10:32:50;16.88;77.39
61641;HTU21D;62201;49.966;8.342;2022-10-31T10:35:42;16.95;77.69
61641;HTU21D;62201;49.966;8.342;2022-10-31T10:40:52;17.23;76.94
61641;HTU21D;62201;49.966;8.342;2022-10-31T10:43:30;17.30;76.15
61641;HTU21D;62201;49.966;8.342;2022-10-31T10:46:17;17.48;75.96
61641;HTU21D;62201;49.966;8.342;2022-10-31T10:49:17;17.59;75.44
61641;HTU21D;62201;49.966;8.342;2022-10-31T10:51:59;17.66;75.72
61641;HTU21D;62201;49.966;8.342;2022-10-31T11:02:44;18.02;74.99
61641;HTU21D;62201;49.966;8.342;2022-10-31T11:05:19;18.47;73.87
61641;HTU21D;62201;49.966;8.342;2022-10-31T11:07:47;18.61;73.53
61641;HTU21D;62201;49.966;8.342;2022-10-31T11:10:15;18.30;73.81
61641;HTU21D;62201;49.966;8.342;2022-10-31T11:12:41;18.21;74.09
61641;HTU21D;62201;49.966;8.342;2022-10-31T11:15:19;18.21;73.04
61641;HTU21D;62201;49.966;8.342;2022-10-31T11:17:49;18.18;72.99
61641;HTU21D;62201;49.966;8.342;2022-10-31T11:22:47;18.20;72.86
61641;HTU21D;62201;49.966;8.342;2022-10-31T11:27:47;18.49;72.48
61641;HTU21D;62201;49.966;8.342;2022-10-31T11:30:23;18.67;72.26
61641;HTU21D;62201;49.966;8.342;2022-10-31T11:32:50;18.89;71.73
61641;HTU21D;62201;49.966;8.342;2022-10-31T11:35:21;18.81;71.10
61641;HTU21D;62201;49.966;8.342;2022-10-31T11:37:49;18.74;71.84
61641;HTU21D;62201;49.966;8.342;2022-10-31T11:40:26;18.77;71.48
61641;HTU21D;62201;49.966;8.342;2022-10-31T11:42:55;18.73;71.33
61641;HTU21D;62201;49.966;8.342;2022-10-31T11:45:34;18.77;70.71
61641;HTU21D;62201;49.966;8.342;2022-10-31T11:48:02;18.85;71.08
61641;HTU21D;62201;49.966;8.342;2022-10-31T11:50:41;18.85;71.31
61641;HTU21D;62201;49.966;8.342;2022-10-31T11:53:48;18.85;70.47
61641;HTU21D;62201;49.966;8.342;2022-10-31T11:56:16;18.86;70.78
61641;HTU21D;62201;49.966;8.342;2022-10-31T11:58:42;18.84;71.21
61641;HTU21D;62201;49.966;8.342;2022-10-31T12:01:27;18.91;70.01
61641;HTU21D;62201;49.966;8.342;2022-10-31T12:04:07;19.09;70.23
61641;HTU21D;62201;49.966;8.342;2022-10-31T12:06:41;19.27;69.86
61641;HTU21D;62201;49.966;8.342;2022-10-31T12:09:28;19.28;69.58
61641;HTU21D;62201;49.966;8.342;2022-10-31T12:15:31;19.58;68.20
61641;HTU21D;62201;49.966;8.342;2022-10-31T12:18:37;19.61;68.20
61641;HTU21D;62201;49.966;8.342;2022-10-31T12:21:23;19.83;67.20
61641;HTU21D;62201;49.966;8.342;2022-10-31T12:32:40;20.18;66.49
61641;HTU21D;62201;49.966;8.342;2022-10-31T12:35:23;20.37;65.11
61641;HTU21D;62201;49.966;8.342;2022-10-31T12:38:28;20.43;64.78
61641;HTU21D;62201;49.966;8.342;2022-10-31T12:41:16;20.24;65.05
61641;HTU21D;62201;49.966;8.342;2022-10-31T12:43:56;20.21;65.69
61641;HTU21D;62201;49.966;8.342;2022-10-31T12:57:23;19.51;67.30
61641;HTU21D;62201;49.966;8.342;2022-10-31T12:59:57;19.44;67.59
61641;HTU21D;62201;49.966;8.342;2022-10-31T13:02:29;19.33;67.68
61641;HTU21D;62201;49.966;8.342;2022-10-31T13:05:01;19.24;68.19
61641;HTU21D;62201;49.966;8.342;2022-10-31T13:07:37;19.14;68.42
61641;HTU21D;62201;49.966;8.342;2022-10-31T13:12:46;19.12;68.68
61641;HTU21D;62201;49.966;8.342;2022-10-31T13:15:23;19.13;68.85
61641;HTU21D;62201;49.966;8.342;2022-10-31T13:17:59;19.12;68.81
61641;HTU21D;62201;49.966;8.342;2022-10-31T13:20:37;19.12;69.04
61641;HTU21D;62201;49.966;8.342;2022-10-31T13:23:34;18.96;69.42
61641;HTU21D;62201;49.966;8.342;2022-10-31T13:26:10;18.96;69.62
61641;HTU21D;62201;49.966;8.342;2022-10-31T13:28:51;19.05;69.78
61641;HTU21D;62201;49.966;8.342;2022-10-31T13:31:18;19.08;69.52
61641;HTU21D;62201;49.966;8.342;2022-10-31T13:33:48;18.95;69.80
61641;HTU21D;62201;49.966;8.342;2022-10-31T13:41:35;18.76;70.62
61641;HTU21D;62201;49.966;8.342;2022-10-31T13:46:41;18.84;70.81
61641;HTU21D;62201;49.966;8.342;2022-10-31T13:51:50;18.74;71.29
61641;HTU21D;62201;49.966;8.342;2022-10-31T13:54:42;18.76;71.35
61641;HTU21D;62201;49.966;8.342;2022-10-31T13:57:31;18.78;71.38
61641;HTU21D;62201;49.966;8.342;2022-10-31T14:02:48;18.73;71.59
61641;HTU21D;62201;49.966;8.342;2022-10-31T14:05:34;18.74;71.58
61641;HTU21D;62201;49.966;8.342;2022-10-31T14:08:02;18.77;72.13
61641;HTU21D;62201;49.966;8.342;2022-10-31T14:10:31;18.70;73.42
61641;HTU21D;62201;49.966;8.342;2022-10-31T14:13:15;18.62;74.81
61641;HTU21D;62201;49.966;8.342;2022-10-31T14:15:56;18.91;73.30
61641;HTU21D;62201;49.966;8.342;2022-10-31T14:18:39;19.66;71.08
61641;HTU21D;62201;49.966;8.342;2022-10-31T14:23:53;21.29;66.43
61641;HTU21D;62201;49.966;8.342;2022-10-31T14:31:43;22.44;62.56
61641;HTU21D;62201;49.966;8.342;2022-10-31T14:40:17;21.18;62.66
61641;HTU21D;62201;49.966;8.342;2022-10-31T14:48:37;20.14;65.95
61641;HTU21D;62201;49.966;8.342;2022-10-31T14:51:18;19.77;67.23
61641;HTU21D;62201;49.966;8.342;2022-10-31T14:53:48;19.46;67.75
61641;HTU21D;62201;49.966;8.342;2022-10-31T14:56:32;19.13;68.61
61641;HTU21D;62201;49.966;8.342;2022-10-31T14:59:05;18.81;69.72
61641;HTU21D;62201;49.966;8.342;2022-10-31T15:01:36;18.62;70.18
61641;HTU21D;62201;49.966;8.342;2022-10-31T15:04:18;18.41;71.55
61641;HTU21D;62201;49.966;8.342;2022-10-31T15:06:47;18.15;72.51
61641;HTU21D;62201;49.966;8.342;2022-10-31T15:09:29;17.87;77.53
61641;HTU21D;62201;49.966;8.342;2022-10-31T15:11:58;17.64;76.99
61641;HTU21D;62201;49.966;8.342;2022-10-31T15:14:27;17.43;78.33
61641;HTU21D;62201;49.966;8.342;2022-10-31T15:16:54;17.28;79.69
61641;HTU21D;62201;49.966;8.342;2022-10-31T15:19:23;17.17;78.56
61641;HTU21D;62201;49.966;8.342;2022-10-31T15:21:51;17.08;79.14
61641;HTU21D;62201;49.966;8.342;2022-10-31T15:24:17;17.01;81.37
61641;HTU21D;62201;49.966;8.342;2022-10-31T15:26:51;16.89;82.04
61641;HTU21D;62201;49.966;8.342;2022-10-31T15:29:22;16.86;80.94
61641;HTU21D;62201;49.966;8.342;2022-10-31T15:31:59;16.88;81.03
61641;HTU21D;62201;49.966;8.342;2022-10-31T15:36:54;16.89;81.78
61641;HTU21D;62201;49.966;8.342;2022-10-31T15:39:19;16.84;82.37
61641;HTU21D;62201;49.966;8.342;2022-10-31T15:41:50;16.80;82.32
61641;HTU21D;62201;49.966;8.342;2022-10-31T15:44:39;16.78;82.55
61641;HTU21D;62201;49.966;8.342;2022-10-31T15:47:16;16.81;82.56
61641;HTU21D;62201;49.966;8.342;2022-10-31T15:49:56;16.94;81.83
61641;HTU21D;62201;49.966;8.342;2022-10-31T15:52:36;17.03;81.39
61641;HTU21D;62201;49.966;8.342;2022-10-31T15:55:28;17.06;81.10
61641;HTU21D;62201;49.966;8.342;2022-10-31T15:58:10;17.02;81.10
61641;HTU21D;62201;49.966;8.342;2022-10-31T16:00:37;16.94;81.39
61641;HTU21D;62201;49.966;8.342;2022-10-31T16:05:50;16.78;82.18
61641;HTU21D;62201;49.966;8.342;2022-10-31T16:11:37;16.56;83.49
61641;HTU21D;62201;49.966;8.342;2022-10-31T16:14:13;16.48;83.15
61641;HTU21D;62201;49.966;8.342;2022-10-31T16:16:42;16.57;82.66
61641;HTU21D;62201;49.966;8.342;2022-10-31T16:19:36;16.59;82.52
61641;HTU21D;62201;49.966;8.342;2022-10-31T16:22:13;16.62;82.20
61641;HTU21D;62201;49.966;8.342;2022-10-31T16:24:48;16.54;82.65
61641;HTU21D;62201;49.966;8.342;2022-10-31T16:27:18;16.54;82.53
61641;HTU21D;62201;49.966;8.342;2022-10-31T16:29:46;16.44;82.96
61641;HTU21D;62201;49.966;8.342;2022-10-31T16:32:25;16.34;83.38
61641;HTU21D;62201;49.966;8.342;2022-10-31T16:37:40;16.14;84.71
61641;HTU21D;62201;49.966;8.342;2022-10-31T16:40:06;16.07;85.14
61641;HTU21D;62201;49.966;8.342;2022-10-31T16:42:31;15.90;85.52
61641;HTU21D;62201;49.966;8.342;2022-10-31T16:44:58;15.82;86.43
61641;HTU21D;62201;49.966;8.342;2022-10-31T16:47:24;15.78;87.53
61641;HTU21D;62201;49.966;8.342;2022-10-31T16:49:49;15.70;87.07
61641;HTU21D;62201;49.966;8.342;2022-10-31T16:52:17;15.67;87.33
61641;HTU21D;62201;49.966;8.342;2022-10-31T16:54:43;15.57;88.12
61641;HTU21D;62201;49.966;8.342;2022-10-31T16:57:18;15.53;88.13
61641;HTU21D;62201;49.966;8.342;2022-10-31T16:59:48;15.41;88.67
61641;HTU21D;62201;49.966;8.342;2022-10-31T17:02:16;15.39;89.97
61641;HTU21D;62201;49.966;8.342;2022-10-31T17:04:42;15.26;90.88
61641;HTU21D;62201;49.966;8.342;2022-10-31T17:07:08;15.14;90.44
61641;HTU21D;62201;49.966;8.342;2022-10-31T17:09:33;15.07;90.87
61641;HTU21D;62201;49.966;8.342;2022-10-31T17:11:59;14.97;91.30
61641;HTU21D;62201;49.966;8.342;2022-10-31T17:14:25;14.93;92.63
61641;HTU21D;62201;49.966;8.342;2022-10-31T17:16:50;14.91;92.52
61641;HTU21D;62201;49.966;8.342;2022-10-31T17:19:16;14.83;92.58
61641;HTU21D;62201;49.966;8.342;2022-10-31T17:21:42;14.81;93.52
61641;HTU21D;62201;49.966;8.342;2022-10-31T17:24:11;14.72;92.83
61641;HTU21D;62201;49.966;8.342;2022-10-31T17:26:37;14.58;93.22
61641;HTU21D;62201;49.966;8.342;2022-10-31T17:29:02;14.53;93.83
61641;HTU21D;62201;49.966;8.342;2022-10-31T17:31:31;14.53;94.40
61641;HTU21D;62201;49.966;8.342;2022-10-31T17:33:59;14.53;94.10
61641;HTU21D;62201;49.966;8.342;2022-10-31T17:36:25;14.47;94.23
61641;HTU21D;62201;49.966;8.342;2022-10-31T17:38:51;14.42;94.66
61641;HTU21D;62201;49.966;8.342;2022-10-31T17:41:16;14.34;94.98
61641;HTU21D;62201;49.966;8.342;2022-10-31T17:43:42;14.24;94.98
61641;HTU21D;62201;49.966;8.342;2022-10-31T17:46:07;14.24;95.35
61641;HTU21D;62201;49.966;8.342;2022-10-31T17:48:34;14.18;95.55